Time;durP1;ratioP1;P1;durP2;ratioP2;P2;SDS_P1;SDS_P2;PMS_P1;PMS_P2;Temp;Humidity;BMP_temperature;BMP_pressure;BME280_temperature;BME280_humidity;BME280_pressure;Samples;Min_cycle;Max_cycle;Signal;HPM_P1;HPM_P2
2023/12/27 00:02:10;;;;;;;7.38;1.65;;;;;;;;;;8224811;28;20054;-58
2023/12/27 00:06:11;;;;;;;5.45;1.70;;;;;;;;;;8217265;28;20550;-59
2023/12/27 00:10:11;;;;;;;3.13;1.73;;;;;;;;;;8219915;28;20034;-59
2023/12/27 00:14:11;;;;;;;5.20;1.70;;;;;;;;;;8221496;28;20061;-58
2023/12/27 00:18:12;;;;;;;2.83;1.50;;;;;;;;;;8222330;28;20037;-59
2023/12/27 00:22:14;;;;;;;3.85;1.30;;;;;;;;;;8212549;28;20047;-58
2023/12/27 00:26:14;;;;;;;2.38;1.20;;;;;;;;;;8222003;28;20989;-58
2023/12/27 00:30:14;;;;;;;5.87;1.40;;;;;;;;;;8224146;28;20446;-58
2023/12/27 00:34:16;;;;;;;4.82;1.73;;;;;;;;;;8223577;28;20276;-60
2023/12/27 00:38:16;;;;;;;2.65;1.45;;;;;;;;;;8224807;28;20034;-58
2023/12/27 00:42:17;;;;;;;3.05;1.50;;;;;;;;;;8227539;28;20025;-58
2023/12/27 00:46:17;;;;;;;6.32;2.08;;;;;;;;;;8225837;28;20196;-58
2023/12/27 00:50:17;;;;;;;3.58;1.88;;;;;;;;;;8225424;28;20533;-58
2023/12/27 00:54:18;;;;;;;3.78;2.08;;;;;;;;;;8230374;28;20171;-58
2023/12/27 00:58:19;;;;;;;4.35;2.00;;;;;;;;;;8226073;28;20045;-59
2023/12/27 01:02:19;;;;;;;3.15;1.70;;;;;;;;;;8226133;28;20042;-60
2023/12/27 01:06:19;;;;;;;3.25;1.98;;;;;;;;;;8225111;28;20030;-58
2023/12/27 01:10:19;;;;;;;5.85;2.20;;;;;;;;;;8224545;28;20064;-58
2023/12/27 01:14:19;;;;;;;3.67;2.00;;;;;;;;;;8224492;28;20025;-58
2023/12/27 01:18:20;;;;;;;3.23;2.00;;;;;;;;;;8227143;28;20531;-58
2023/12/27 01:22:20;;;;;;;2.83;1.83;;;;;;;;;;8223420;28;20298;-58
2023/12/27 01:26:20;;;;;;;3.07;2.10;;;;;;;;;;8225440;28;20116;-58
2023/12/27 01:30:20;;;;;;;4.50;2.50;;;;;;;;;;8225374;28;21442;-58
2023/12/27 01:34:20;;;;;;;8.23;2.75;;;;;;;;;;8230207;28;20065;-58
2023/12/27 01:38:21;;;;;;;4.13;2.95;;;;;;;;;;8235789;28;20029;-58
2023/12/27 01:42:21;;;;;;;6.35;2.65;;;;;;;;;;8228342;28;20021;-58
2023/12/27 01:46:21;;;;;;;6.22;3.13;;;;;;;;;;8233129;28;21002;-58
2023/12/27 01:50:22;;;;;;;5.78;3.03;;;;;;;;;;8232254;28;20072;-59
2023/12/27 01:54:22;;;;;;;4.53;2.80;;;;;;;;;;8264250;28;20116;-58
2023/12/27 01:58:23;;;;;;;3.92;2.70;;;;;;;;;;8268823;28;20030;-58
2023/12/27 02:02:24;;;;;;;4.38;2.75;;;;;;;;;;8258508;28;20053;-58
2023/12/27 02:06:24;;;;;;;3.17;2.47;;;;;;;;;;8263910;28;20026;-58
2023/12/27 02:10:25;;;;;;;2.67;2.47;;;;;;;;;;8267261;28;20486;-58
2023/12/27 02:14:25;;;;;;;2.60;2.40;;;;;;;;;;8262953;28;20276;-59
2023/12/27 02:18:25;;;;;;;3.28;2.78;;;;;;;;;;8262945;28;20226;-58
2023/12/27 02:22:27;;;;;;;3.40;3.05;;;;;;;;;;8262270;28;20147;-58
2023/12/27 02:26:27;;;;;;;3.78;2.92;;;;;;;;;;8265659;28;20128;-59
2023/12/27 02:30:27;;;;;;;3.22;2.63;;;;;;;;;;8262944;28;20049;-59
2023/12/27 02:34:27;;;;;;;5.18;2.67;;;;;;;;;;8262137;28;20034;-58
2023/12/27 02:38:28;;;;;;;6.93;3.05;;;;;;;;;;8261607;28;20161;-58
2023/12/27 02:42:28;;;;;;;3.58;2.67;;;;;;;;;;8261982;28;20136;-58
2023/12/27 02:46:31;;;;;;;4.00;2.63;;;;;;;;;;8257688;28;20045;-58
2023/12/27 02:50:31;;;;;;;3.80;2.73;;;;;;;;;;8261353;28;20037;-58
2023/12/27 02:54:32;;;;;;;5.70;2.58;;;;;;;;;;8227980;28;20030;-59
2023/12/27 02:58:32;;;;;;;5.15;2.55;;;;;;;;;;8229049;28;20030;-59
2023/12/27 03:02:32;;;;;;;5.28;2.30;;;;;;;;;;8236170;28;20053;-58
2023/12/27 03:06:32;;;;;;;4.45;2.20;;;;;;;;;;8260361;28;20073;-58
2023/12/27 03:10:33;;;;;;;3.70;2.90;;;;;;;;;;8256775;28;20041;-58
2023/12/27 03:14:33;;;;;;;4.00;2.58;;;;;;;;;;8259002;28;20030;-59
2023/12/27 03:18:33;;;;;;;4.80;2.30;;;;;;;;;;8258903;28;20106;-59
2023/12/27 03:22:34;;;;;;;6.28;3.22;;;;;;;;;;8261699;28;20104;-58
2023/12/27 03:26:35;;;;;;;6.78;3.53;;;;;;;;;;8258420;28;20018;-58
2023/12/27 03:30:35;;;;;;;4.93;2.90;;;;;;;;;;8259684;28;20038;-57
2023/12/27 03:34:35;;;;;;;5.40;2.70;;;;;;;;;;8260604;28;20382;-57
2023/12/27 03:38:35;;;;;;;3.08;2.83;;;;;;;;;;8258542;28;20124;-58
2023/12/27 03:42:35;;;;;;;5.70;2.83;;;;;;;;;;8256022;28;20014;-59
2023/12/27 03:46:37;;;;;;;4.82;2.20;;;;;;;;;;8259785;28;20033;-59
2023/12/27 03:50:37;;;;;;;6.53;2.75;;;;;;;;;;8261216;28;20806;-59
2023/12/27 03:54:38;;;;;;;4.22;2.72;;;;;;;;;;8263085;28;20044;-58
2023/12/27 03:58:41;;;;;;;5.65;2.80;;;;;;;;;;8262038;28;20045;-58
2023/12/27 04:02:41;;;;;;;6.57;2.88;;;;;;;;;;8243713;28;20030;-58
2023/12/27 04:06:41;;;;;;;3.60;2.40;;;;;;;;;;8226357;28;20498;-59
2023/12/27 04:10:41;;;;;;;6.05;2.95;;;;;;;;;;8225833;28;20033;-59
2023/12/27 04:14:42;;;;;;;4.55;2.58;;;;;;;;;;8224046;28;20087;-58
2023/12/27 04:18:42;;;;;;;5.75;2.55;;;;;;;;;;8219683;28;20606;-58
2023/12/27 04:22:42;;;;;;;3.65;2.50;;;;;;;;;;8225100;28;20030;-58
2023/12/27 04:26:42;;;;;;;8.90;3.53;;;;;;;;;;8221478;28;20030;-57
2023/12/27 04:30:42;;;;;;;4.07;2.45;;;;;;;;;;8222045;28;20376;-58
2023/12/27 04:34:43;;;;;;;8.13;2.50;;;;;;;;;;8226092;28;20022;-58
2023/12/27 04:38:43;;;;;;;5.07;1.95;;;;;;;;;;8223745;28;20685;-58
2023/12/27 04:42:43;;;;;;;6.15;1.98;;;;;;;;;;8222006;28;20026;-58
2023/12/27 04:46:43;;;;;;;3.60;2.00;;;;;;;;;;8225359;28;20042;-58
2023/12/27 04:50:44;;;;;;;3.70;1.90;;;;;;;;;;8220425;28;20025;-57
2023/12/27 04:54:44;;;;;;;4.95;1.90;;;;;;;;;;8225432;28;20018;-58
2023/12/27 04:58:44;;;;;;;3.08;2.17;;;;;;;;;;8228581;28;20141;-57
2023/12/27 05:02:45;;;;;;;2.65;1.70;;;;;;;;;;8225080;28;20085;-58
2023/12/27 05:06:45;;;;;;;2.88;1.77;;;;;;;;;;8226432;28;20710;-58
2023/12/27 05:10:45;;;;;;;4.90;1.80;;;;;;;;;;8221231;28;20030;-57
2023/12/27 05:14:46;;;;;;;4.38;2.15;;;;;;;;;;8253273;28;20097;-58
2023/12/27 05:18:47;;;;;;;3.53;1.77;;;;;;;;;;8252315;28;20119;-58
2023/12/27 05:22:47;;;;;;;3.97;2.30;;;;;;;;;;8242549;28;20143;-60
2023/12/27 05:26:47;;;;;;;5.15;2.70;;;;;;;;;;8228709;28;20136;-61
2023/12/27 05:30:48;;;;;;;4.82;2.50;;;;;;;;;;8227725;28;20044;-59
2023/12/27 05:34:48;;;;;;;4.53;2.63;;;;;;;;;;8226316;28;20025;-59
2023/12/27 05:38:48;;;;;;;4.82;2.50;;;;;;;;;;8227180;28;20021;-59
2023/12/27 05:42:48;;;;;;;5.03;2.47;;;;;;;;;;8225781;28;20481;-59
2023/12/27 05:46:49;;;;;;;4.13;2.60;;;;;;;;;;8222735;28;20292;-59
2023/12/27 05:50:49;;;;;;;4.50;2.40;;;;;;;;;;8220218;28;20017;-59
2023/12/27 05:54:49;;;;;;;4.55;2.55;;;;;;;;;;8223136;28;20272;-59
2023/12/27 05:58:50;;;;;;;2.80;2.30;;;;;;;;;;8227310;28;20025;-59
2023/12/27 06:02:50;;;;;;;9.98;2.58;;;;;;;;;;8223028;28;20034;-58
2023/12/27 06:06:50;;;;;;;3.17;2.80;;;;;;;;;;8223050;28;20044;-58
2023/12/27 06:10:50;;;;;;;5.88;2.63;;;;;;;;;;8222327;28;20028;-59
2023/12/27 06:14:51;;;;;;;6.25;2.63;;;;;;;;;;8221254;28;20029;-58
2023/12/27 06:18:54;;;;;;;8.95;2.70;;;;;;;;;;8224637;28;20100;-59
2023/12/27 06:22:54;;;;;;;5.87;2.97;;;;;;;;;;8227983;28;20116;-59
2023/12/27 06:26:54;;;;;;;5.75;2.75;;;;;;;;;;8228867;28;20125;-59
2023/12/27 06:30:54;;;;;;;3.58;2.33;;;;;;;;;;8229714;28;20071;-58
2023/12/27 06:34:55;;;;;;;3.10;2.17;;;;;;;;;;8231830;28;20037;-58
2023/12/27 06:38:55;;;;;;;2.30;1.92;;;;;;;;;;8229466;28;20022;-58
2023/12/27 06:42:56;;;;;;;2.22;2.00;;;;;;;;;;8232868;28;20050;-58
2023/12/27 06:46:56;;;;;;;3.35;2.00;;;;;;;;;;8231758;28;20674;-58
2023/12/27 06:50:57;;;;;;;2.92;1.70;;;;;;;;;;8226369;28;20072;-58
2023/12/27 06:54:57;;;;;;;1.97;1.77;;;;;;;;;;8228885;28;20038;-59
2023/12/27 06:58:57;;;;;;;1.88;1.50;;;;;;;;;;8228172;28;20584;-58
2023/12/27 07:02:59;;;;;;;3.13;1.90;;;;;;;;;;8228060;28;20100;-58
2023/12/27 07:06:59;;;;;;;3.92;1.70;;;;;;;;;;8226972;28;20273;-58
2023/12/27 07:10:59;;;;;;;1.90;1.70;;;;;;;;;;8226295;28;20040;-58
2023/12/27 07:15:00;;;;;;;3.38;1.63;;;;;;;;;;8226151;28;20034;-58
2023/12/27 07:19:00;;;;;;;1.70;1.60;;;;;;;;;;8226545;28;20144;-59
2023/12/27 07:23:00;;;;;;;2.85;1.50;;;;;;;;;;8227387;28;20064;-58
2023/12/27 07:27:00;;;;;;;2.00;1.50;;;;;;;;;;8228393;28;20129;-58
2023/12/27 07:31:00;;;;;;;2.78;1.73;;;;;;;;;;8228112;28;20046;-58
2023/12/27 07:35:01;;;;;;;2.58;1.85;;;;;;;;;;8224761;28;20386;-58
2023/12/27 07:39:01;;;;;;;2.90;1.80;;;;;;;;;;8228087;28;20022;-57
2023/12/27 07:43:03;;;;;;;6.95;2.20;;;;;;;;;;8222654;28;20089;-58
2023/12/27 07:47:04;;;;;;;3.35;1.83;;;;;;;;;;8224926;28;20843;-58
2023/12/27 07:51:04;;;;;;;3.00;1.90;;;;;;;;;;8230321;28;20065;-57
2023/12/27 07:55:04;;;;;;;3.22;2.13;;;;;;;;;;8231156;28;20018;-58
2023/12/27 07:59:05;;;;;;;3.50;2.00;;;;;;;;;;8227880;28;20025;-58
2023/12/27 08:03:08;;;;;;;3.38;2.20;;;;;;;;;;8225061;28;20165;-59
2023/12/27 08:07:08;;;;;;;8.23;2.63;;;;;;;;;;8224422;28;20030;-59
2023/12/27 08:11:08;;;;;;;9.85;6.10;;;;;;;;;;8225382;28;20529;-58
2023/12/27 08:15:09;;;;;;;5.78;3.40;;;;;;;;;;8229177;28;20026;-58
2023/12/27 08:19:10;;;;;;;4.57;2.67;;;;;;;;;;8226685;28;20029;-59
2023/12/27 08:23:12;;;;;;;5.22;2.53;;;;;;;;;;8223637;28;20026;-59
2023/12/27 08:27:12;;;;;;;3.65;2.80;;;;;;;;;;8230529;28;20022;-59
2023/12/27 08:31:13;;;;;;;7.03;4.23;;;;;;;;;;8223022;28;20046;-58
2023/12/27 08:35:14;;;;;;;5.22;3.45;;;;;;;;;;8227017;28;20273;-59
2023/12/27 08:39:15;;;;;;;1.73;1.58;;;;;;;;;;8225321;28;20029;-59
2023/12/27 08:43:15;;;;;;;2.60;2.03;;;;;;;;;;8239793;28;20493;-58
2023/12/27 08:47:15;;;;;;;2.58;2.38;;;;;;;;;;8255352;28;20755;-59
2023/12/27 08:51:15;;;;;;;5.27;2.70;;;;;;;;;;8249598;28;20029;-58
2023/12/27 08:55:16;;;;;;;3.28;2.90;;;;;;;;;;8226056;28;20316;-58
2023/12/27 08:59:16;;;;;;;8.90;5.07;;;;;;;;;;8227938;28;20109;-59
2023/12/27 09:03:16;;;;;;;8.85;5.68;;;;;;;;;;8225524;28;20029;-59
2023/12/27 09:07:16;;;;;;;4.35;2.70;;;;;;;;;;8226072;28;20686;-59
2023/12/27 09:11:18;;;;;;;5.95;3.30;;;;;;;;;;8224478;28;20057;-56
2023/12/27 09:15:18;;;;;;;3.80;2.78;;;;;;;;;;8225746;28;20777;-58
2023/12/27 09:19:18;;;;;;;2.75;2.08;;;;;;;;;;8221832;28;20018;-57
2023/12/27 09:23:19;;;;;;;2.73;2.47;;;;;;;;;;8225789;28;20030;-58
2023/12/27 09:27:19;;;;;;;2.40;1.70;;;;;;;;;;8221810;28;20420;-58
2023/12/27 09:31:19;;;;;;;2.40;1.70;;;;;;;;;;8221434;28;20033;-57
2023/12/27 09:35:19;;;;;;;3.63;2.85;;;;;;;;;;8224697;28;20017;-58
2023/12/27 09:39:19;;;;;;;3.55;2.67;;;;;;;;;;8223124;28;20045;-58
2023/12/27 09:43:21;;;;;;;4.50;3.40;;;;;;;;;;8219651;28;20026;-58
2023/12/27 09:47:23;;;;;;;4.90;3.67;;;;;;;;;;8224473;28;20124;-57
2023/12/27 09:51:24;;;;;;;3.65;3.30;;;;;;;;;;8225082;28;20099;-58
2023/12/27 09:55:24;;;;;;;5.03;4.10;;;;;;;;;;8231803;28;20099;-58
2023/12/27 09:59:27;;;;;;;4.57;4.13;;;;;;;;;;8229594;28;20057;-58
2023/12/27 10:03:43;;;;;;;6.03;4.00;;;;;;;;;;8231242;28;20053;-59
2023/12/27 10:07:43;;;;;;;4.38;2.85;;;;;;;;;;8229744;28;20061;-59
2023/12/27 10:11:44;;;;;;;4.57;3.05;;;;;;;;;;8231687;28;20112;-58
2023/12/27 10:15:44;;;;;;;4.32;3.28;;;;;;;;;;8232374;28;20034;-58
2023/12/27 10:19:45;;;;;;;4.47;2.77;;;;;;;;;;8231244;28;20040;-59
2023/12/27 10:23:45;;;;;;;4.40;2.50;;;;;;;;;;8230907;28;20276;-58
2023/12/27 10:27:45;;;;;;;5.20;2.17;;;;;;;;;;8232484;28;20048;-57
2023/12/27 10:31:47;;;;;;;3.78;2.97;;;;;;;;;;8225613;28;20045;-59
2023/12/27 10:35:47;;;;;;;3.15;1.65;;;;;;;;;;8232333;28;20025;-58
2023/12/27 10:39:47;;;;;;;1.67;1.30;;;;;;;;;;8232009;28;20025;-58
2023/12/27 10:43:50;;;;;;;1.35;1.10;;;;;;;;;;8234005;28;20780;-59
2023/12/27 10:47:56;;;;;;;2.25;1.40;;;;;;;;;;8232222;28;20542;-59
2023/12/27 10:51:58;;;;;;;2.22;1.52;;;;;;;;;;8230692;28;20030;-58
2023/12/27 10:55:59;;;;;;;2.75;1.42;;;;;;;;;;8227672;28;20037;-58
2023/12/27 11:00:00;;;;;;;3.13;1.80;;;;;;;;;;8229614;28;20117;-59
2023/12/27 11:04:10;;;;;;;5.32;1.70;;;;;;;;;;8228567;28;20042;-58
2023/12/27 11:08:12;;;;;;;1.67;1.05;;;;;;;;;;8227938;28;20854;-59
2023/12/27 11:12:16;;;;;;;2.90;1.40;;;;;;;;;;8229005;28;20060;-58
2023/12/27 11:16:17;;;;;;;2.08;1.40;;;;;;;;;;8225887;28;20069;-58
2023/12/27 11:20:19;;;;;;;3.72;1.23;;;;;;;;;;8220745;28;20049;-58
2023/12/27 11:24:20;;;;;;;1.23;1.00;;;;;;;;;;8231174;28;20029;-59
2023/12/27 11:28:20;;;;;;;2.78;1.35;;;;;;;;;;8229300;28;20061;-59
2023/12/27 11:32:20;;;;;;;2.20;1.20;;;;;;;;;;8229007;28;20042;-57
2023/12/27 11:36:20;;;;;;;4.47;1.00;;;;;;;;;;8231663;28;20021;-57
2023/12/27 11:40:33;;;;;;;4.10;1.30;;;;;;;;;;8231539;28;21029;-58
2023/12/27 11:44:36;;;;;;;4.90;1.55;;;;;;;;;;8234753;28;20368;-58
2023/12/27 11:48:36;;;;;;;3.47;1.50;;;;;;;;;;8231243;28;20061;-57
2023/12/27 11:52:40;;;;;;;2.33;1.40;;;;;;;;;;8230670;28;20049;-59
2023/12/27 11:56:40;;;;;;;2.55;1.40;;;;;;;;;;8229433;28;20895;-57
2023/12/27 12:00:41;;;;;;;3.78;1.33;;;;;;;;;;8226473;28;20026;-58
2023/12/27 12:04:50;;;;;;;3.83;1.40;;;;;;;;;;8229217;28;20120;-57
2023/12/27 12:08:50;;;;;;;2.20;1.33;;;;;;;;;;8224723;28;20160;-57
2023/12/27 12:12:51;;;;;;;2.45;1.50;;;;;;;;;;8229415;28;20151;-59
2023/12/27 12:16:52;;;;;;;5.10;1.67;;;;;;;;;;8224884;28;20034;-59
2023/12/27 12:20:52;;;;;;;2.57;1.57;;;;;;;;;;8230468;28;20541;-59
2023/12/27 12:24:52;;;;;;;3.28;1.58;;;;;;;;;;8246346;28;20742;-59
2023/12/27 12:28:56;;;;;;;2.05;1.20;;;;;;;;;;8250738;28;20029;-59
2023/12/27 12:32:57;;;;;;;3.95;1.30;;;;;;;;;;8246452;28;20096;-58
2023/12/27 12:36:58;;;;;;;2.65;1.42;;;;;;;;;;8244179;28;20022;-58
2023/12/27 12:40:59;;;;;;;5.82;1.60;;;;;;;;;;8241587;28;20096;-58
2023/12/27 12:44:59;;;;;;;2.33;1.30;;;;;;;;;;8233297;28;20100;-58
2023/12/27 12:49:00;;;;;;;2.90;1.45;;;;;;;;;;8227514;28;20282;-58
2023/12/27 12:53:13;;;;;;;1.77;1.30;;;;;;;;;;8226175;28;20021;-58
2023/12/27 12:57:14;;;;;;;8.90;3.37;;;;;;;;;;8226268;28;20026;-58
2023/12/27 13:01:14;;;;;;;4.75;1.60;;;;;;;;;;8225237;28;21029;-58
2023/12/27 13:05:15;;;;;;;5.85;1.60;;;;;;;;;;8227907;28;20138;-58
2023/12/27 13:09:16;;;;;;;4.77;1.80;;;;;;;;;;8221053;28;20037;-57
2023/12/27 13:13:16;;;;;;;4.97;1.70;;;;;;;;;;8220844;28;20269;-58
2023/12/27 13:17:16;;;;;;;3.50;1.38;;;;;;;;;;8226762;28;20038;-57
2023/12/27 13:21:16;;;;;;;3.55;1.40;;;;;;;;;;8221821;28;21027;-57
2023/12/27 13:25:17;;;;;;;4.32;1.58;;;;;;;;;;8241645;28;20044;-58
2023/12/27 13:29:19;;;;;;;4.40;1.63;;;;;;;;;;8246127;28;20080;-59
2023/12/27 13:33:19;;;;;;;4.05;1.70;;;;;;;;;;8245148;28;20034;-57
2023/12/27 13:37:21;;;;;;;5.20;1.80;;;;;;;;;;8235812;28;20111;-58
2023/12/27 13:41:21;;;;;;;3.83;1.60;;;;;;;;;;8227888;28;20037;-57
2023/12/27 13:45:22;;;;;;;3.90;1.60;;;;;;;;;;8232807;28;20033;-58
2023/12/27 13:49:22;;;;;;;4.00;1.63;;;;;;;;;;8234825;28;20039;-59
2023/12/27 13:53:23;;;;;;;4.20;1.80;;;;;;;;;;8243447;28;20276;-59
2023/12/27 13:57:23;;;;;;;7.22;1.88;;;;;;;;;;8253133;28;20088;-58
2023/12/27 14:01:23;;;;;;;5.68;1.80;;;;;;;;;;8244486;28;20037;-59
2023/12/27 14:05:25;;;;;;;13.80;6.88;;;;;;;;;;8250200;28;20046;-58
2023/12/27 14:09:25;;;;;;;11.27;4.50;;;;;;;;;;8242980;28;20052;-59
2023/12/27 14:13:25;;;;;;;9.80;4.88;;;;;;;;;;8255858;28;20220;-59
2023/12/27 14:17:26;;;;;;;11.05;6.40;;;;;;;;;;8250949;28;20046;-59
2023/12/27 14:21:29;;;;;;;5.28;3.15;;;;;;;;;;8242205;28;20033;-58
2023/12/27 14:25:30;;;;;;;7.65;2.58;;;;;;;;;;8244768;28;21335;-59
2023/12/27 14:29:31;;;;;;;4.13;2.40;;;;;;;;;;8249424;28;20034;-59
2023/12/27 14:33:31;;;;;;;3.95;2.00;;;;;;;;;;8238335;28;20781;-59
2023/12/27 14:37:31;;;;;;;5.93;2.22;;;;;;;;;;8232674;28;20048;-59
2023/12/27 14:41:32;;;;;;;6.18;2.60;;;;;;;;;;8228168;28;20034;-58
2023/12/27 14:45:32;;;;;;;5.40;1.90;;;;;;;;;;8230808;28;20491;-59
2023/12/27 14:49:32;;;;;;;7.68;2.10;;;;;;;;;;8233381;28;20029;-59
2023/12/27 14:53:33;;;;;;;4.32;2.03;;;;;;;;;;8234858;28;20030;-59
2023/12/27 14:57:33;;;;;;;3.17;1.80;;;;;;;;;;8234335;28;20052;-59
2023/12/27 15:01:33;;;;;;;2.33;1.58;;;;;;;;;;8230873;28;20030;-57
2023/12/27 15:05:34;;;;;;;3.63;1.90;;;;;;;;;;8229650;28;20026;-58
2023/12/27 15:09:35;;;;;;;5.55;2.35;;;;;;;;;;8227153;28;20285;-58
2023/12/27 15:13:36;;;;;;;3.88;2.10;;;;;;;;;;8230014;28;20025;-58
2023/12/27 15:17:36;;;;;;;4.68;2.60;;;;;;;;;;8231576;28;20777;-58
2023/12/27 15:21:37;;;;;;;4.15;2.47;;;;;;;;;;8225197;28;20068;-58
2023/12/27 15:25:38;;;;;;;5.35;2.70;;;;;;;;;;8225459;28;20014;-56
2023/12/27 15:29:38;;;;;;;6.10;3.50;;;;;;;;;;8227612;28;20033;-58
2023/12/27 15:33:38;;;;;;;9.02;4.88;;;;;;;;;;8229033;28;20034;-58
2023/12/27 15:37:39;;;;;;;8.05;3.90;;;;;;;;;;8228882;28;20032;-59
2023/12/27 15:41:39;;;;;;;5.70;2.97;;;;;;;;;;8229998;28;20462;-59
2023/12/27 15:45:39;;;;;;;15.32;7.47;;;;;;;;;;8228757;28;20516;-58
2023/12/27 15:49:40;;;;;;;9.13;4.05;;;;;;;;;;8228150;28;20033;-59
2023/12/27 15:53:40;;;;;;;6.45;2.70;;;;;;;;;;8227000;28;20649;-59
2023/12/27 15:57:40;;;;;;;7.25;3.42;;;;;;;;;;8233438;28;20025;-58
2023/12/27 16:01:42;;;;;;;7.40;3.78;;;;;;;;;;8229887;28;20045;-59
2023/12/27 16:05:46;;;;;;;10.52;5.30;;;;;;;;;;8229746;28;20026;-59
2023/12/27 16:09:46;;;;;;;8.37;4.60;;;;;;;;;;8224435;28;20037;-59
2023/12/27 16:13:47;;;;;;;6.67;3.03;;;;;;;;;;8225707;28;20022;-59
2023/12/27 16:17:47;;;;;;;8.57;3.03;;;;;;;;;;8228306;28;20284;-58
2023/12/27 16:21:47;;;;;;;6.78;2.92;;;;;;;;;;8227503;28;20107;-59
2023/12/27 16:25:47;;;;;;;3.42;2.45;;;;;;;;;;8223620;28;20041;-59
2023/12/27 16:29:48;;;;;;;5.65;2.20;;;;;;;;;;8226728;28;20088;-59
2023/12/27 16:33:49;;;;;;;5.10;2.17;;;;;;;;;;8227936;28;20026;-59
2023/12/27 16:37:49;;;;;;;4.68;1.88;;;;;;;;;;8232138;28;20022;-59
2023/12/27 16:41:49;;;;;;;3.58;1.98;;;;;;;;;;8231516;28;20023;-64
2023/12/27 16:45:50;;;;;;;3.28;2.10;;;;;;;;;;8229267;28;20061;-58
2023/12/27 16:49:50;;;;;;;2.10;1.80;;;;;;;;;;8229427;28;20057;-59
2023/12/27 16:53:52;;;;;;;5.13;2.33;;;;;;;;;;8248657;28;20019;-58
2023/12/27 16:57:52;;;;;;;6.40;2.80;;;;;;;;;;8264106;28;20269;-58
2023/12/27 17:01:53;;;;;;;2.95;2.55;;;;;;;;;;8267389;28;20037;-58
2023/12/27 17:05:53;;;;;;;3.97;2.00;;;;;;;;;;8266206;28;20018;-58
2023/12/27 17:09:54;;;;;;;3.15;1.80;;;;;;;;;;8264346;28;20273;-58
2023/12/27 17:13:54;;;;;;;7.10;2.03;;;;;;;;;;8262434;28;20318;-57
2023/12/27 17:17:54;;;;;;;3.45;2.13;;;;;;;;;;8258488;28;20042;-58
2023/12/27 17:21:55;;;;;;;3.72;2.30;;;;;;;;;;8259132;28;20033;-58
2023/12/27 17:25:55;;;;;;;3.38;2.10;;;;;;;;;;8260633;28;20065;-58
2023/12/27 17:29:56;;;;;;;2.28;1.98;;;;;;;;;;8262095;28;20023;-59
2023/12/27 17:33:56;;;;;;;2.93;1.80;;;;;;;;;;8256991;28;20107;-58
2023/12/27 17:37:56;;;;;;;5.78;2.13;;;;;;;;;;8246599;28;20273;-58
2023/12/27 17:41:56;;;;;;;4.30;2.40;;;;;;;;;;8246952;28;20038;-58
2023/12/27 17:45:59;;;;;;;5.75;2.42;;;;;;;;;;8247704;28;20038;-58
2023/12/27 17:50:00;;;;;;;4.82;2.45;;;;;;;;;;8253033;28;20029;-58
2023/12/27 17:54:01;;;;;;;3.13;2.40;;;;;;;;;;8250622;28;20033;-58
2023/12/27 17:58:01;;;;;;;4.85;2.25;;;;;;;;;;8237194;28;20026;-58
2023/12/27 18:02:04;;;;;;;3.65;2.28;;;;;;;;;;8243427;28;20045;-59
2023/12/27 18:06:06;;;;;;;2.28;1.73;;;;;;;;;;8215494;28;21026;-58
2023/12/27 18:10:06;;;;;;;2.45;1.77;;;;;;;;;;8216824;28;20130;-58
2023/12/27 18:14:07;;;;;;;2.58;1.70;;;;;;;;;;8216344;28;21642;-58
2023/12/27 18:18:08;;;;;;;4.03;1.88;;;;;;;;;;8224642;28;20656;-58
2023/12/27 18:22:08;;;;;;;4.07;2.10;;;;;;;;;;8219773;28;20033;-58
2023/12/27 18:26:08;;;;;;;3.22;2.10;;;;;;;;;;8224308;28;20448;-59
2023/12/27 18:30:08;;;;;;;5.47;2.50;;;;;;;;;;8222605;28;20025;-58
2023/12/27 18:34:09;;;;;;;4.40;1.73;;;;;;;;;;8225819;28;20018;-58
2023/12/27 18:38:10;;;;;;;5.05;1.88;;;;;;;;;;8225532;28;20033;-58
2023/12/27 18:42:10;;;;;;;4.20;2.05;;;;;;;;;;8221682;28;20105;-58
2023/12/27 18:46:10;;;;;;;1.67;1.50;;;;;;;;;;8229254;28;20871;-58
2023/12/27 18:50:10;;;;;;;2.38;1.60;;;;;;;;;;8226705;28;20978;-59
2023/12/27 18:54:11;;;;;;;1.92;1.52;;;;;;;;;;8223674;28;20026;-60
2023/12/27 18:58:11;;;;;;;2.20;1.60;;;;;;;;;;8226207;28;20018;-58
2023/12/27 19:02:11;;;;;;;2.70;1.95;;;;;;;;;;8220993;28;20033;-58
2023/12/27 19:06:12;;;;;;;5.37;2.87;;;;;;;;;;8219046;28;20022;-58
2023/12/27 19:10:13;;;;;;;3.67;2.20;;;;;;;;;;8222936;28;20280;-58
2023/12/27 19:14:14;;;;;;;4.28;2.05;;;;;;;;;;8221938;28;20052;-58
2023/12/27 19:18:14;;;;;;;4.95;2.63;;;;;;;;;;8221423;28;20033;-58
2023/12/27 19:22:14;;;;;;;5.68;3.85;;;;;;;;;;8221941;28;20025;-59
2023/12/27 19:26:15;;;;;;;5.57;2.72;;;;;;;;;;8222103;28;20039;-58
2023/12/27 19:30:15;;;;;;;5.40;3.05;;;;;;;;;;8220219;28;20027;-58
2023/12/27 19:34:16;;;;;;;4.22;2.13;;;;;;;;;;8221519;28;20056;-58
2023/12/27 19:38:16;;;;;;;3.60;1.85;;;;;;;;;;8222005;28;20034;-58
2023/12/27 19:42:18;;;;;;;3.05;2.40;;;;;;;;;;8222031;28;20546;-58
2023/12/27 19:46:18;;;;;;;7.95;4.75;;;;;;;;;;8223965;28;20039;-57
2023/12/27 19:50:18;;;;;;;5.85;4.10;;;;;;;;;;8221452;28;20517;-57
2023/12/27 19:54:21;;;;;;;7.00;3.63;;;;;;;;;;8223115;28;20109;-58
2023/12/27 19:58:21;;;;;;;4.53;2.53;;;;;;;;;;8220555;28;20100;-58
2023/12/27 20:02:22;;;;;;;3.20;2.57;;;;;;;;;;8219082;28;20916;-63
2023/12/27 20:06:22;;;;;;;4.57;2.30;;;;;;;;;;8217424;28;21076;-58
2023/12/27 20:10:22;;;;;;;3.57;2.40;;;;;;;;;;8212986;28;20083;-58
2023/12/27 20:14:22;;;;;;;3.90;2.85;;;;;;;;;;8216940;28;20277;-58
2023/12/27 20:18:23;;;;;;;3.72;2.10;;;;;;;;;;8217011;28;20131;-59
2023/12/27 20:22:23;;;;;;;3.17;2.72;;;;;;;;;;8214684;28;20034;-57
2023/12/27 20:26:24;;;;;;;2.97;2.20;;;;;;;;;;8243723;28;20033;-58
2023/12/27 20:30:24;;;;;;;2.80;2.00;;;;;;;;;;8243078;28;20291;-59
2023/12/27 20:34:24;;;;;;;2.90;1.90;;;;;;;;;;8237125;28;20133;-58
2023/12/27 20:38:25;;;;;;;6.07;1.90;;;;;;;;;;8217824;28;20273;-58
2023/12/27 20:42:25;;;;;;;3.83;2.13;;;;;;;;;;8221196;28;20916;-58
2023/12/27 20:46:25;;;;;;;3.65;1.80;;;;;;;;;;8217415;28;20075;-58
2023/12/27 20:50:25;;;;;;;3.93;1.87;;;;;;;;;;8213428;28;20030;-58
2023/12/27 20:54:27;;;;;;;3.28;1.80;;;;;;;;;;8218169;28;20704;-58
2023/12/27 20:58:27;;;;;;;4.47;1.88;;;;;;;;;;8223344;28;22533;-59
2023/12/27 21:02:29;;;;;;;4.00;1.83;;;;;;;;;;8217384;28;20617;-58
2023/12/27 21:06:29;;;;;;;2.28;1.60;;;;;;;;;;8219592;28;20152;-57
2023/12/27 21:10:29;;;;;;;2.08;1.52;;;;;;;;;;8216478;28;20160;-58
2023/12/27 21:14:30;;;;;;;3.70;2.10;;;;;;;;;;8214647;28;20115;-58
2023/12/27 21:18:32;;;;;;;2.08;1.73;;;;;;;;;;8219002;28;20073;-58
2023/12/27 21:22:32;;;;;;;2.85;1.90;;;;;;;;;;8220972;28;20038;-58
2023/12/27 21:26:32;;;;;;;2.38;1.70;;;;;;;;;;8221069;28;20203;-58
2023/12/27 21:30:33;;;;;;;4.28;2.10;;;;;;;;;;8217709;28;20046;-59
2023/12/27 21:34:33;;;;;;;2.42;1.77;;;;;;;;;;8218119;28;20026;-60
2023/12/27 21:38:33;;;;;;;3.92;1.60;;;;;;;;;;8220892;28;20125;-57
2023/12/27 21:42:33;;;;;;;3.67;1.70;;;;;;;;;;8220545;28;20049;-59
2023/12/27 21:46:34;;;;;;;1.70;1.50;;;;;;;;;;8217075;28;20713;-58
2023/12/27 21:50:34;;;;;;;1.63;1.50;;;;;;;;;;8222660;28;20026;-58
2023/12/27 21:54:34;;;;;;;2.45;1.90;;;;;;;;;;8226177;28;20299;-58
2023/12/27 21:58:35;;;;;;;2.43;1.90;;;;;;;;;;8227788;28;20054;-57
2023/12/27 22:02:35;;;;;;;2.08;1.80;;;;;;;;;;8220587;28;20048;-58
2023/12/27 22:06:36;;;;;;;3.33;2.25;;;;;;;;;;8258591;28;20044;-58
2023/12/27 22:10:37;;;;;;;1.88;1.73;;;;;;;;;;8262080;28;20036;-58
2023/12/27 22:14:37;;;;;;;2.78;1.77;;;;;;;;;;8261370;28;20045;-58
2023/12/27 22:18:37;;;;;;;2.40;2.08;;;;;;;;;;8256355;28;20026;-59
2023/12/27 22:22:40;;;;;;;1.83;1.70;;;;;;;;;;8257052;28;20029;-59
2023/12/27 22:26:40;;;;;;;2.38;2.05;;;;;;;;;;8260404;28;20906;-59
2023/12/27 22:30:40;;;;;;;2.78;1.92;;;;;;;;;;8257459;28;20524;-58
2023/12/27 22:34:40;;;;;;;4.20;2.03;;;;;;;;;;8258438;28;20481;-58
2023/12/27 22:38:41;;;;;;;3.58;1.80;;;;;;;;;;8255356;28;20034;-57
2023/12/27 22:42:42;;;;;;;2.50;1.80;;;;;;;;;;8252668;28;20577;-59
2023/12/27 22:46:42;;;;;;;3.70;2.13;;;;;;;;;;8226197;28;20025;-59
2023/12/27 22:50:42;;;;;;;2.53;1.95;;;;;;;;;;8226588;28;20111;-59
2023/12/27 22:54:42;;;;;;;4.10;1.92;;;;;;;;;;8228095;28;20037;-59
2023/12/27 22:58:43;;;;;;;4.65;2.03;;;;;;;;;;8222252;28;20091;-59
2023/12/27 23:02:47;;;;;;;3.08;2.10;;;;;;;;;;8223182;28;20625;-59
2023/12/27 23:06:47;;;;;;;;;;;;;;;;;;8223359;28;20669;-58
2023/12/27 23:10:47;;;;;;;4.57;2.47;;;;;;;;;;8225336;28;19931;-59
2023/12/27 23:14:47;;;;;;;2.55;2.10;;;;;;;;;;8223225;28;20631;-58
2023/12/27 23:18:48;;;;;;;4.35;2.53;;;;;;;;;;8222181;28;20032;-58
2023/12/27 23:22:48;;;;;;;3.35;2.13;;;;;;;;;;8222116;28;20029;-57
2023/12/27 23:26:48;;;;;;;3.38;2.30;;;;;;;;;;8222584;28;20018;-59
2023/12/27 23:30:48;;;;;;;3.63;2.42;;;;;;;;;;8220533;28;20042;-58
2023/12/27 23:34:49;;;;;;;4.22;2.20;;;;;;;;;;8227294;28;20026;-59
2023/12/27 23:38:49;;;;;;;3.55;2.40;;;;;;;;;;8221507;28;20026;-58
2023/12/27 23:42:49;;;;;;;3.50;2.20;;;;;;;;;;8224379;28;20022;-57
2023/12/27 23:46:50;;;;;;;3.85;2.35;;;;;;;;;;8226102;28;20038;-58
2023/12/27 23:50:50;;;;;;;3.42;2.40;;;;;;;;;;8223622;28;20014;-56
2023/12/27 23:54:50;;;;;;;3.58;2.38;;;;;;;;;;8224744;28;20509;-59
2023/12/27 23:58:51;;;;;;;3.60;2.40;;;;;;;;;;8223706;28;20100;-59
